Time;durP1;ratioP1;P1;durP2;ratioP2;P2;SDS_P1;SDS_P2;PMS_P1;PMS_P2;Temp;Humidity;BMP_temperature;BMP_pressure;BME280_temperature;BME280_humidity;BME280_pressure;Samples;Min_cycle;Max_cycle;Signal;HPM_P1;HPM_P2
2021/08/24 00:00:57;;;;;;;21.82;8.80;;;;;;;19.09;77.31;101421.09;1704321;84;20999;-86
2021/08/24 00:03:24;;;;;;;23.83;9.73;;;;;;;19.10;76.96;101415.34;1704552;84;21046;-86
2021/08/24 00:05:51;;;;;;;22.02;9.88;;;;;;;19.10;76.37;101420.61;1705450;84;21103;-86
2021/08/24 00:08:20;;;;;;;19.52;10.32;;;;;;;19.08;76.23;101418.09;1703807;84;21014;-86
2021/08/24 00:10:50;;;;;;;24.40;10.18;;;;;;;19.08;76.45;101415.98;1704122;84;20939;-88
2021/08/24 00:13:20;;;;;;;22.07;8.90;;;;;;;19.06;76.40;101415.27;1703937;84;20995;-87
2021/08/24 00:15:51;;;;;;;30.23;9.80;;;;;;;19.07;76.64;101420.88;1703709;84;21046;-87
2021/08/24 00:18:18;;;;;;;18.15;9.40;;;;;;;19.08;76.52;101416.78;1703909;84;21095;-87
2021/08/24 00:20:47;;;;;;;18.92;9.70;;;;;;;19.09;76.49;101415.83;1703542;84;21497;-87
2021/08/24 00:23:16;;;;;;;20.45;9.80;;;;;;;19.09;76.45;101416.30;1703694;84;21533;-86
2021/08/24 00:25:43;;;;;;;33.35;10.30;;;;;;;19.09;76.36;101420.25;1704137;84;20988;-87
2021/08/24 00:28:10;;;;;;;30.08;9.50;;;;;;;19.09;76.54;101422.88;1703483;84;20975;-88
2021/08/24 00:30:38;;;;;;;32.00;9.65;;;;;;;19.09;76.41;101421.56;1703144;84;21134;-87
2021/08/24 00:33:08;;;;;;;30.62;9.10;;;;;;;19.09;76.42;101416.30;1703139;84;20955;-88
2021/08/24 00:35:38;;;;;;;37.50;9.73;;;;;;;19.07;76.06;101428.77;1702114;84;21019;-88
2021/08/24 00:38:10;;;;;;;21.97;9.30;;;;;;;19.04;75.56;101431.20;1703128;84;21499;-88
2021/08/24 00:40:36;;;;;;;33.23;10.40;;;;;;;19.01;75.92;101425.73;1703545;84;20907;-88
2021/08/24 00:43:05;;;;;;;34.55;10.70;;;;;;;18.98;75.97;101431.24;1703065;84;21118;-88
2021/08/24 00:45:35;;;;;;;70.03;16.07;;;;;;;18.96;76.03;101427.92;1677299;84;21038;-87
2021/08/24 00:48:01;;;;;;;78.85;20.35;;;;;;;18.95;75.98;101422.31;1655308;84;20967;-86
2021/08/24 00:50:32;;;;;;;72.15;19.45;;;;;;;18.94;75.16;101422.47;1702974;83;21328;-86
2021/08/24 00:53:12;;;;;;;51.77;15.35;;;;;;;18.93;75.24;101426.05;1703220;84;21564;-88
2021/08/24 00:55:44;;;;;;;70.00;14.38;;;;;;;18.89;75.75;101425.48;1703056;84;21125;-88
2021/08/24 00:58:12;;;;;;;57.13;11.35;;;;;;;18.85;75.37;101420.66;1702472;83;21842;-88
2021/08/24 01:00:42;;;;;;;55.08;11.88;;;;;;;18.82;74.77;101421.77;1703936;84;21037;-89
2021/08/24 01:03:12;;;;;;;51.58;10.48;;;;;;;18.81;75.04;101424.03;1703817;84;21117;-86
2021/08/24 01:05:40;;;;;;;44.83;9.98;;;;;;;18.77;75.21;101421.80;1703469;84;21537;-88
2021/08/24 01:08:11;;;;;;;48.42;8.43;;;;;;;18.70;75.23;101428.08;1677505;84;21141;-85
2021/08/24 01:10:45;;;;;;;47.35;8.55;;;;;;;18.65;74.62;101429.45;1696062;83;21014;-88
2021/08/24 01:13:19;;;;;;;61.25;8.30;;;;;;;18.59;74.11;101427.37;1703919;84;21525;-86
2021/08/24 01:15:55;;;;;;;50.55;7.25;;;;;;;18.54;73.72;101425.12;1702891;83;20999;-90
2021/08/24 01:18:33;;;;;;;32.88;7.22;;;;;;;18.52;73.83;101427.07;1703328;84;21058;-88
2021/08/24 01:21:20;;;;;;;33.40;7.30;;;;;;;18.51;73.66;101426.71;1703440;84;21150;-88
2021/08/24 01:23:54;;;;;;;27.65;8.53;;;;;;;18.46;73.50;101423.63;1677304;84;21489;-87
2021/08/24 01:26:38;;;;;;;20.43;8.45;;;;;;;18.40;73.39;101426.31;1703235;84;21015;-89
2021/08/24 01:29:46;;;;;;;21.50;8.63;;;;;;;18.35;73.23;101422.40;1703760;84;20915;-90
2021/08/24 01:32:44;;;;;;;17.27;7.87;;;;;;;18.26;73.00;101421.41;1704713;84;20966;-91
2021/08/24 01:35:29;;;;;;;23.00;9.50;;;;;;;18.19;73.12;101421.58;1694201;83;21025;-89
2021/08/24 01:38:18;;;;;;;29.10;10.18;;;;;;;18.15;72.92;101425.93;1702370;84;20951;-87
2021/08/24 01:41:04;;;;;;;28.70;11.25;;;;;;;18.11;73.09;101425.36;1673502;84;21474;-87
2021/08/24 01:43:58;;;;;;;28.87;11.18;;;;;;;18.09;73.12;101424.67;1703153;84;21063;-85
2021/08/24 01:46:39;;;;;;;24.92;11.38;;;;;;;18.08;73.08;101423.47;1704111;84;20931;-86
2021/08/24 01:49:06;;;;;;;26.33;9.70;;;;;;;18.05;73.10;101419.32;1703790;83;21803;-85
2021/08/24 01:51:42;;;;;;;24.02;9.85;;;;;;;18.01;73.19;101418.38;1705087;84;20992;-85
2021/08/24 01:54:25;;;;;;;29.32;10.95;;;;;;;17.94;73.45;101409.72;1704611;81;20943;-85
2021/08/24 01:56:53;;;;;;;34.10;11.83;;;;;;;17.93;73.59;101409.86;1705373;84;20986;-87
2021/08/24 01:59:44;;;;;;;23.77;10.55;;;;;;;17.94;73.61;101404.94;1705347;84;21010;-87
2021/08/24 02:02:13;;;;;;;19.85;8.70;;;;;;;17.95;73.62;101402.20;1705522;84;21087;-86
2021/08/24 02:04:55;;;;;;;16.73;7.58;;;;;;;17.97;73.37;101401.58;1704973;84;20987;-86
2021/08/24 02:07:22;;;;;;;17.52;7.50;;;;;;;17.96;73.00;101401.22;1705801;84;20990;-86
2021/08/24 02:09:52;;;;;;;21.55;7.87;;;;;;;17.97;72.92;101403.36;1705266;84;20994;-86
2021/08/24 02:12:22;;;;;;;19.73;8.38;;;;;;;17.98;72.83;101406.35;1705214;84;20982;-85
2021/08/24 02:14:49;;;;;;;25.72;9.63;;;;;;;17.99;72.64;101408.03;1705560;84;21958;-86
2021/08/24 02:17:17;;;;;;;23.65;9.35;;;;;;;18.01;72.51;101406.56;1679519;84;21017;-86
2021/08/24 02:19:52;;;;;;;21.12;9.00;;;;;;;18.03;72.29;101407.28;1656816;84;20923;-86
2021/08/24 02:22:27;;;;;;;17.57;8.25;;;;;;;18.04;72.31;101408.45;1705205;84;20986;-86
2021/08/24 02:24:56;;;;;;;18.07;7.90;;;;;;;18.03;72.05;101405.97;1703251;82;20903;-87
2021/08/24 02:27:27;;;;;;;19.45;9.28;;;;;;;18.01;71.87;101400.84;1705421;84;21786;-86
2021/08/24 02:29:55;;;;;;;12.40;7.62;;;;;;;18.00;71.63;101397.05;1705665;82;21010;-86
2021/08/24 02:32:29;;;;;;;14.35;6.35;;;;;;;17.98;71.37;101395.84;1678348;84;20994;-85
2021/08/24 02:35:23;;;;;;;11.60;6.65;;;;;;;17.94;71.32;101397.90;1704813;84;21526;-86
2021/08/24 02:38:01;;;;;;;11.60;5.95;;;;;;;17.93;71.13;101397.54;1672765;84;21542;-86
2021/08/24 02:40:54;;;;;;;11.48;5.78;;;;;;;17.91;71.16;101389.45;1705159;84;21192;-86
2021/08/24 02:43:35;;;;;;;;;;;;;;;17.90;71.43;101385.98;1708692;84;20955;-85
2021/08/24 02:46:16;;;;;;;11.88;5.70;;;;;;;17.89;71.26;101384.34;1704822;84;20106;-86
2021/08/24 02:48:45;;;;;;;11.70;5.80;;;;;;;17.86;71.01;101391.17;1704756;84;21006;-86
2021/08/24 02:51:15;;;;;;;11.57;5.87;;;;;;;17.83;71.23;101385.34;1674293;84;21003;-87
2021/08/24 02:53:45;;;;;;;18.27;6.75;;;;;;;17.82;71.07;101381.88;1696327;84;21505;-86
2021/08/24 02:56:12;;;;;;;16.65;7.70;;;;;;;17.82;71.12;101376.63;1672308;84;21017;-86
2021/08/24 02:58:39;;;;;;;15.40;7.45;;;;;;;17.85;71.05;101381.62;1696231;84;20974;-86
2021/08/24 03:01:07;;;;;;;21.17;7.90;;;;;;;17.87;70.77;101388.03;1672288;84;20920;-86
2021/08/24 03:03:34;;;;;;;17.17;7.65;;;;;;;17.87;70.70;101381.00;1696347;84;21553;-85
2021/08/24 03:06:00;;;;;;;15.88;8.40;;;;;;;17.85;70.32;101384.25;1696331;84;21123;-85
2021/08/24 03:08:27;;;;;;;16.57;7.87;;;;;;;17.80;70.12;101374.62;1696509;84;20860;-86
2021/08/24 03:10:53;;;;;;;17.45;7.58;;;;;;;17.77;70.16;101376.68;1696041;84;21024;-86
2021/08/24 03:13:34;;;;;;;12.30;7.05;;;;;;;17.72;70.51;101373.11;1696108;84;21003;-87
2021/08/24 03:16:19;;;;;;;22.62;7.72;;;;;;;17.70;70.86;101372.42;1686925;84;21501;-86
2021/08/24 03:18:53;;;;;;;19.12;8.68;;;;;;;17.70;70.86;101369.80;1696173;84;21094;-86
2021/08/24 03:21:24;;;;;;;18.15;8.03;;;;;;;17.72;70.69;101370.97;1695999;84;20955;-86
2021/08/24 03:23:54;;;;;;;19.23;8.00;;;;;;;17.73;70.47;101372.64;1696214;84;20966;-87
2021/08/24 03:26:29;;;;;;;25.43;11.20;;;;;;;17.72;70.41;101374.91;1695931;84;20967;-87
2021/08/24 03:28:57;;;;;;;40.75;14.38;;;;;;;17.73;70.51;101371.33;1696114;84;20903;-88
2021/08/24 03:31:26;;;;;;;29.67;12.25;;;;;;;17.74;70.35;101382.99;1696068;84;21078;-88
2021/08/24 03:33:52;;;;;;;31.23;13.40;;;;;;;17.76;70.84;101376.31;1696208;84;20955;-88
2021/08/24 03:36:18;;;;;;;36.63;15.05;;;;;;;17.75;70.21;101374.64;1696085;84;20940;-86
2021/08/24 03:38:46;;;;;;;36.17;14.75;;;;;;;17.77;69.64;101374.86;1696247;84;20992;-85
2021/08/24 03:41:12;;;;;;;36.68;15.08;;;;;;;17.75;69.60;101375.95;1696018;84;21006;-86
2021/08/24 03:43:40;;;;;;;34.63;13.13;;;;;;;17.72;69.56;101375.73;1696013;84;22542;-86
2021/08/24 03:46:06;;;;;;;31.57;13.50;;;;;;;17.70;69.67;101372.91;1695883;84;21467;-87
2021/08/24 03:48:35;;;;;;;33.53;14.83;;;;;;;17.70;69.64;101371.59;1696090;84;20936;-87
2021/08/24 03:51:01;;;;;;;45.73;15.23;;;;;;;17.70;69.52;101372.91;1691152;84;20984;-86
2021/08/24 03:53:27;;;;;;;31.62;14.28;;;;;;;17.70;69.47;101365.02;1688168;85;21466;-88
2021/08/24 03:55:54;;;;;;;32.83;12.70;;;;;;;17.69;69.40;101365.50;1688080;85;21141;-86
2021/08/24 03:58:20;;;;;;;21.50;9.60;;;;;;;17.70;69.40;101367.65;1688023;85;21565;-88
2021/08/24 04:00:48;;;;;;;10.60;6.35;;;;;;;17.72;69.54;101372.28;1688193;85;20868;-91
2021/08/24 04:03:14;;;;;;;14.55;6.17;;;;;;;17.73;69.17;101374.79;1688146;85;20959;-91
2021/08/24 04:05:41;;;;;;;10.60;5.08;;;;;;;17.77;68.50;101379.30;1688126;85;21012;-90
2021/08/24 04:08:08;;;;;;;6.83;4.50;;;;;;;17.75;68.19;101374.17;1688041;85;21127;-89
2021/08/24 04:10:35;;;;;;;10.25;5.00;;;;;;;17.76;68.21;101369.28;1688182;85;20988;-87
2021/08/24 04:13:03;;;;;;;10.03;4.70;;;;;;;17.78;68.18;101373.06;1688086;85;20987;-87
2021/08/24 04:15:31;;;;;;;9.23;4.55;;;;;;;17.80;68.15;101375.10;1688282;85;20960;-87
2021/08/24 04:17:58;;;;;;;6.75;4.17;;;;;;;17.85;68.36;101372.91;1688042;85;20865;-87
2021/08/24 04:20:24;;;;;;;6.40;4.05;;;;;;;17.90;67.75;101368.91;1688112;85;21135;-88
2021/08/24 04:22:51;;;;;;;10.28;4.08;;;;;;;17.94;67.59;101375.58;1687974;85;20984;-88
2021/08/24 04:25:18;;;;;;;8.15;3.70;;;;;;;17.99;67.51;101375.20;1687945;85;20940;-87
2021/08/24 04:27:45;;;;;;;11.38;4.00;;;;;;;18.02;67.51;101373.62;1687776;85;20920;-88
2021/08/24 04:30:13;;;;;;;9.20;4.33;;;;;;;18.05;67.32;101373.36;1687879;85;21000;-86
2021/08/24 04:32:43;;;;;;;9.75;4.15;;;;;;;18.10;67.01;101372.94;1688001;85;21069;-87
2021/08/24 04:35:10;;;;;;;15.25;7.42;;;;;;;18.13;67.10;101373.98;1687798;85;21022;-90
2021/08/24 04:37:36;;;;;;;27.30;15.13;;;;;;;18.17;67.04;101375.39;1687913;85;21038;-88
2021/08/24 04:40:04;;;;;;;27.05;15.65;;;;;;;18.21;66.82;101375.48;1666221;85;20952;-87
2021/08/24 04:42:30;;;;;;;47.40;27.98;;;;;;;18.24;66.92;101371.28;1688046;85;20999;-86
2021/08/24 04:44:58;;;;;;;38.55;18.92;;;;;;;18.28;66.92;101372.69;1688017;85;21129;-86
2021/08/24 04:47:25;;;;;;;38.40;20.40;;;;;;;18.33;67.00;101367.84;1687773;85;21483;-87
2021/08/24 04:49:51;;;;;;;39.10;20.77;;;;;;;18.36;67.02;101364.95;1688059;85;20971;-87
2021/08/24 04:52:18;;;;;;;44.03;21.33;;;;;;;18.40;67.26;101367.19;1702853;83;21557;-87
2021/08/24 04:54:44;;;;;;;40.58;19.00;;;;;;;18.47;67.52;101367.48;1703155;84;21067;-86
2021/08/24 04:57:11;;;;;;;33.92;15.60;;;;;;;18.55;67.59;101364.19;1703202;84;21120;-87
2021/08/24 04:59:37;;;;;;;33.18;15.93;;;;;;;18.62;67.92;101370.09;1703006;84;21003;-87
2021/08/24 05:02:04;;;;;;;30.23;13.90;;;;;;;18.70;67.42;101366.30;1703213;84;20937;-86
2021/08/24 05:04:32;;;;;;;27.65;12.25;;;;;;;18.77;67.45;101363.47;1703088;84;20947;-87
2021/08/24 05:06:59;;;;;;;23.85;9.45;;;;;;;18.84;67.52;101365.07;1703213;84;21567;-87
2021/08/24 05:09:26;;;;;;;22.40;8.25;;;;;;;18.90;67.49;101365.36;1703252;84;21119;-86
2021/08/24 05:11:52;;;;;;;17.27;6.37;;;;;;;18.96;67.47;101363.97;1703263;84;20978;-87
2021/08/24 05:14:19;;;;;;;11.85;5.95;;;;;;;19.02;67.48;101360.78;1703391;84;21030;-85
2021/08/24 05:16:46;;;;;;;15.55;5.83;;;;;;;19.09;67.36;101364.52;1703370;84;20927;-86
2021/08/24 05:19:12;;;;;;;14.40;4.80;;;;;;;19.16;67.30;101359.05;1703272;84;20957;-86
2021/08/24 05:21:40;;;;;;;9.18;4.17;;;;;;;19.24;67.06;101357.05;1703441;84;21117;-87
2021/08/24 05:24:06;;;;;;;9.33;4.17;;;;;;;19.30;66.66;101358.64;1703083;84;20899;-86
2021/08/24 05:26:33;;;;;;;9.10;4.50;;;;;;;19.38;66.18;101357.44;1703373;84;20951;-85
2021/08/24 05:29:00;;;;;;;12.23;4.10;;;;;;;19.46;65.79;101360.73;1703290;84;20974;-86
2021/08/24 05:31:27;;;;;;;11.70;4.25;;;;;;;19.53;65.55;101365.27;1703160;84;20995;-86
2021/08/24 05:33:55;;;;;;;10.40;3.85;;;;;;;19.62;65.06;101364.92;1703197;84;21155;-85
2021/08/24 05:36:21;;;;;;;9.40;4.28;;;;;;;19.69;64.58;101360.72;1703324;84;20974;-85
2021/08/24 05:38:49;;;;;;;15.18;4.37;;;;;;;19.77;64.00;101368.75;1703392;84;21083;-86
2021/08/24 05:41:16;;;;;;;12.35;4.97;;;;;;;19.85;64.00;101370.65;1703055;84;21041;-87
2021/08/24 05:43:43;;;;;;;12.55;4.20;;;;;;;19.93;63.52;101368.98;1703316;84;21539;-86
2021/08/24 05:46:12;;;;;;;10.23;4.70;;;;;;;20.01;63.37;101361.16;1703094;84;21113;-85
2021/08/24 05:48:39;;;;;;;13.90;4.42;;;;;;;20.12;63.29;101368.06;1703336;84;20970;-86
2021/08/24 05:51:12;;;;;;;12.03;3.95;;;;;;;20.21;63.19;101370.30;1702807;83;21453;-88
2021/08/24 05:53:39;;;;;;;9.30;4.85;;;;;;;20.30;62.78;101372.09;1702912;84;21078;-86
2021/08/24 05:56:08;;;;;;;15.05;5.33;;;;;;;20.37;62.53;101370.05;1703360;84;20975;-86
2021/08/24 05:58:37;;;;;;;15.70;5.20;;;;;;;20.47;62.41;101372.15;1703195;84;21204;-83
2021/08/24 06:01:05;;;;;;;11.88;4.72;;;;;;;20.57;62.74;101374.24;1703247;84;20899;-84
2021/08/24 06:03:33;;;;;;;9.85;4.50;;;;;;;20.66;62.82;101369.04;1703230;84;21010;-85
2021/08/24 06:06:00;;;;;;;13.28;4.87;;;;;;;20.76;62.97;101369.81;1677246;84;21089;-85
2021/08/24 06:08:26;;;;;;;11.73;4.37;;;;;;;20.86;63.02;101375.85;1703082;84;21113;-86
2021/08/24 06:10:53;;;;;;;16.30;4.65;;;;;;;20.95;63.05;101370.50;1703288;84;21152;-84
2021/08/24 06:13:20;;;;;;;15.28;5.42;;;;;;;21.05;62.82;101372.58;1703194;84;21564;-84
2021/08/24 06:15:46;;;;;;;18.62;5.42;;;;;;;21.15;62.88;101371.20;1703396;84;20990;-84
2021/08/24 06:18:12;;;;;;;10.90;4.70;;;;;;;21.24;62.87;101370.29;1703163;84;20923;-86
2021/08/24 06:20:39;;;;;;;14.65;5.70;;;;;;;21.34;62.97;101366.23;1703405;84;21027;-85
2021/08/24 06:23:06;;;;;;;12.93;5.35;;;;;;;21.44;62.07;101363.02;1703314;84;21127;-84
2021/08/24 06:25:33;;;;;;;13.90;5.08;;;;;;;21.54;61.74;101359.76;1703234;84;21034;-89
2021/08/24 06:27:59;;;;;;;7.83;5.17;;;;;;;21.62;61.95;101360.66;1703243;84;21026;-85
2021/08/24 06:30:26;;;;;;;16.52;4.85;;;;;;;21.72;61.99;101363.69;1703136;84;20912;-86
2021/08/24 06:32:53;;;;;;;16.42;6.33;;;;;;;21.80;61.73;101363.23;1703441;84;21396;-86
2021/08/24 06:35:22;;;;;;;18.50;6.80;;;;;;;21.88;61.48;101365.94;1703083;84;21129;-86
2021/08/24 06:37:49;;;;;;;16.15;6.80;;;;;;;21.97;61.81;101367.66;1703352;84;20987;-86
2021/08/24 06:40:19;;;;;;;14.70;5.85;;;;;;;22.06;62.16;101369.35;1703201;84;21695;-86
2021/08/24 06:42:50;;;;;;;9.33;5.22;;;;;;;22.16;62.11;101369.23;1703321;84;20985;-88
2021/08/24 06:45:22;;;;;;;16.77;5.50;;;;;;;22.27;61.67;101373.41;1703266;84;22310;-84
2021/08/24 06:47:49;;;;;;;;;;;;;;;22.39;61.36;101375.61;1705988;84;22211;-84
2021/08/24 06:50:16;;;;;;;11.15;4.65;;;;;;;22.46;61.03;101364.69;1703140;84;20194;-84
2021/08/24 06:52:43;;;;;;;12.70;4.62;;;;;;;22.56;61.23;101372.48;1703196;84;20988;-84
2021/08/24 06:55:12;;;;;;;9.38;3.98;;;;;;;22.65;61.45;101375.52;1703250;84;21617;-84
2021/08/24 06:57:41;;;;;;;7.62;4.15;;;;;;;22.75;61.06;101365.63;1703215;84;20978;-82
2021/08/24 07:00:27;;;;;;;5.70;4.55;;;;;;;22.85;61.17;101364.98;1703431;84;21127;-94
2021/08/24 07:02:54;;;;;;;9.70;5.10;;;;;;;22.96;61.08;101371.30;1687443;84;20963;-84
2021/08/24 07:05:24;;;;;;;7.05;4.08;;;;;;;23.08;60.75;101373.11;1703264;84;20978;-83
2021/08/24 07:07:50;;;;;;;8.55;3.85;;;;;;;23.20;61.01;101371.29;1703344;84;21058;-84
2021/08/24 07:10:17;;;;;;;8.88;4.08;;;;;;;23.30;61.17;101367.64;1703130;84;21087;-83
2021/08/24 07:12:44;;;;;;;9.80;5.25;;;;;;;23.42;60.82;101369.81;1703361;84;21124;-86
2021/08/24 07:15:14;;;;;;;9.43;4.65;;;;;;;23.51;60.88;101372.81;1703136;84;21514;-85
2021/08/24 07:17:41;;;;;;;10.70;4.87;;;;;;;23.61;60.62;101371.30;1703227;84;33350;-84
2021/08/24 07:20:14;;;;;;;13.03;5.35;;;;;;;23.70;60.45;101367.14;1703227;84;20991;-85
2021/08/24 07:22:42;;;;;;;14.30;7.87;;;;;;;23.81;60.16;101371.73;1703243;84;21035;-86
2021/08/24 07:25:12;;;;;;;16.52;8.98;;;;;;;23.89;59.58;101370.40;1703097;84;21162;-85
2021/08/24 07:27:38;;;;;;;12.98;6.60;;;;;;;23.95;59.32;101363.09;1703142;84;20983;-82
2021/08/24 07:30:06;;;;;;;9.13;5.00;;;;;;;24.04;59.57;101370.84;1703289;84;21466;-82
2021/08/24 07:32:32;;;;;;;13.32;5.25;;;;;;;24.13;59.16;101368.52;1703231;84;20954;-83
2021/08/24 07:34:59;;;;;;;5.45;3.62;;;;;;;24.23;58.62;101367.81;1703308;84;21554;-89
2021/08/24 07:37:27;;;;;;;9.23;4.00;;;;;;;24.34;58.35;101367.11;1703271;84;21114;-87
2021/08/24 07:39:54;;;;;;;5.40;3.58;;;;;;;24.42;58.28;101371.86;1703201;84;20887;-87
2021/08/24 07:42:20;;;;;;;7.55;3.90;;;;;;;24.52;57.98;101366.34;1703350;84;20963;-83
2021/08/24 07:44:49;;;;;;;6.60;3.92;;;;;;;24.59;57.56;101365.48;1703420;84;21398;-86
2021/08/24 07:47:16;;;;;;;9.00;4.78;;;;;;;24.70;57.47;101370.86;1703192;84;20971;-88
2021/08/24 07:49:46;;;;;;;9.58;4.00;;;;;;;24.80;57.29;101370.14;1703626;84;21121;-81
2021/08/24 07:52:11;;;;;;;6.20;3.70;;;;;;;24.89;56.15;101366.98;1694187;83;20963;-83
2021/08/24 07:54:37;;;;;;;9.10;4.37;;;;;;;24.97;55.88;101366.91;1687820;85;20940;-82
2021/08/24 07:57:04;;;;;;;5.60;4.25;;;;;;;25.07;55.98;101361.69;1687898;85;21000;-84
2021/08/24 07:59:30;;;;;;;8.93;4.53;;;;;;;25.18;55.69;101366.55;1687905;85;20980;-80
2021/08/24 08:01:57;;;;;;;11.80;4.58;;;;;;;25.31;55.59;101355.81;1687957;85;21491;-84
2021/08/24 08:04:26;;;;;;;6.58;4.40;;;;;;;25.41;55.26;101365.69;1688114;85;21003;-84
2021/08/24 08:06:53;;;;;;;6.40;4.15;;;;;;;25.51;54.16;101364.47;1687388;85;21048;-84
2021/08/24 08:09:20;;;;;;;10.00;4.37;;;;;;;25.57;53.66;101356.27;1687993;85;20947;-91
2021/08/24 08:11:55;;;;;;;7.90;4.17;;;;;;;25.60;53.04;101354.07;1688222;85;20995;-93
2021/08/24 08:14:21;;;;;;;10.48;4.42;;;;;;;25.66;53.22;101353.84;1688366;85;21778;-84
2021/08/24 08:16:48;;;;;;;8.10;4.75;;;;;;;25.75;52.93;101356.23;1688157;85;20999;-81
2021/08/24 08:19:15;;;;;;;7.90;4.35;;;;;;;25.83;52.72;101355.82;1687925;85;20932;-83
2021/08/24 08:21:41;;;;;;;7.37;4.55;;;;;;;25.92;51.25;101355.55;1687791;85;21538;-84
2021/08/24 08:24:08;;;;;;;9.68;4.30;;;;;;;26.00;51.06;101355.47;1688371;85;20940;-88
2021/08/24 08:26:36;;;;;;;8.70;4.42;;;;;;;26.08;50.15;101354.52;1687937;85;21158;-87
2021/08/24 08:29:05;;;;;;;9.75;4.00;;;;;;;26.14;50.23;101350.61;1687832;85;21514;-83
2021/08/24 08:31:33;;;;;;;9.45;4.53;;;;;;;26.22;50.11;101349.23;1687730;85;21011;-88
2021/08/24 08:34:00;;;;;;;7.37;4.62;;;;;;;26.32;49.32;101350.27;1687848;85;21095;-83
2021/08/24 08:36:26;;;;;;;10.30;4.62;;;;;;;26.42;48.46;101348.10;1688115;85;20924;-87
2021/08/24 08:38:53;;;;;;;5.33;4.40;;;;;;;26.49;48.77;101347.67;1688089;85;21158;-84
2021/08/24 08:41:43;;;;;;;6.97;4.60;;;;;;;26.60;48.56;101345.03;1687712;85;21574;-83
2021/08/24 08:44:27;;;;;;;8.60;4.83;;;;;;;26.69;47.73;101341.23;1687587;85;21027;-84
2021/08/24 08:47:12;;;;;;;9.03;4.83;;;;;;;26.78;48.08;101336.92;1687774;85;21050;-86
2021/08/24 08:50:00;;;;;;;7.67;4.37;;;;;;;26.92;48.60;101339.24;1649662;85;20951;-81
2021/08/24 08:53:06;;;;;;;8.78;5.42;;;;;;;27.01;47.15;101336.76;1687784;84;21205;-82
2021/08/24 08:55:42;;;;;;;7.47;4.65;;;;;;;27.05;47.63;101334.53;1688063;85;20999;-84
2021/08/24 08:59:03;;;;;;;9.60;4.70;;;;;;;27.17;45.90;101335.66;1673608;85;21046;-81
2021/08/24 09:01:44;;;;;;;10.88;4.17;;;;;;;27.29;46.02;101331.44;1688211;85;21062;-80
2021/08/24 09:04:34;;;;;;;5.83;4.45;;;;;;;27.42;46.39;101331.53;1687514;84;21570;-82
2021/08/24 09:07:01;;;;;;;7.50;5.08;;;;;;;27.50;46.03;101318.10;1687961;85;21726;-80
2021/08/24 09:09:29;;;;;;;5.42;4.37;;;;;;;27.58;45.74;101325.10;1687657;85;20904;-83
2021/08/24 09:11:56;;;;;;;11.83;5.45;;;;;;;27.63;45.49;101319.48;1644078;85;21063;-79
2021/08/24 09:14:41;;;;;;;6.50;4.58;;;;;;;27.69;46.10;101318.73;1687927;85;20919;-89
2021/08/24 09:17:29;;;;;;;8.20;5.78;;;;;;;27.78;44.88;101318.88;1687894;85;20881;-82
2021/08/24 09:20:06;;;;;;;8.53;4.87;;;;;;;27.78;44.30;101318.88;1687997;85;21216;-81
2021/08/24 09:22:33;;;;;;;8.43;5.47;;;;;;;27.84;45.59;101318.59;1687846;85;21000;-82
2021/08/24 09:25:03;;;;;;;7.65;4.75;;;;;;;27.95;45.96;101319.88;1687919;85;21612;-84
2021/08/24 09:28:02;;;;;;;7.00;5.12;;;;;;;28.07;46.59;101310.30;1687379;85;21082;-85
2021/08/24 09:30:30;;;;;;;9.60;4.97;;;;;;;28.20;46.66;101315.70;1687824;85;21019;-83
2021/08/24 09:33:04;;;;;;;6.33;4.80;;;;;;;28.35;46.18;101309.17;1666205;85;21590;-81
2021/08/24 09:35:38;;;;;;;7.80;4.72;;;;;;;28.48;46.31;101300.36;1687998;85;20987;-82
2021/08/24 09:38:24;;;;;;;9.40;5.40;;;;;;;28.60;45.85;101305.91;1687972;85;20948;-83
2021/08/24 09:40:58;;;;;;;9.48;5.17;;;;;;;28.53;45.91;101304.56;1688106;85;21015;-80
2021/08/24 09:43:35;;;;;;;10.98;5.58;;;;;;;28.51;46.80;101306.62;1688200;85;20944;-85
2021/08/24 09:46:19;;;;;;;7.12;5.20;;;;;;;28.54;46.85;101301.39;1687536;84;21795;-82
2021/08/24 09:48:53;;;;;;;8.73;5.75;;;;;;;28.67;47.69;101303.61;1688095;85;20960;-82
2021/08/24 09:51:43;;;;;;;8.50;5.83;;;;;;;28.85;46.59;101302.48;1667348;85;21577;-80
2021/08/24 09:54:42;;;;;;;7.58;5.15;;;;;;;29.25;45.91;101293.97;1674010;85;21053;-84
2021/08/24 09:57:31;;;;;;;10.95;5.10;;;;;;;30.32;40.50;101304.09;1673857;85;20971;-84
2021/08/24 10:00:22;;;;;;;5.20;4.70;;;;;;;31.51;38.94;101294.13;1673705;85;21115;-87
2021/08/24 10:02:57;;;;;;;6.42;4.53;;;;;;;32.82;37.54;101294.23;1673995;85;20939;-84
2021/08/24 10:05:33;;;;;;;5.12;4.62;;;;;;;34.27;34.35;101295.00;1673828;85;21821;-85
2021/08/24 10:08:01;;;;;;;7.53;4.97;;;;;;;34.90;31.54;101292.88;1673608;84;21237;-86
2021/08/24 10:10:35;;;;;;;5.42;4.53;;;;;;;35.07;30.78;101292.83;1673945;85;21502;-84
2021/08/24 10:13:32;;;;;;;6.40;4.80;;;;;;;35.68;30.77;101285.61;1673492;85;21139;-82
2021/08/24 10:16:16;;;;;;;9.43;4.10;;;;;;;36.57;29.31;101287.67;1673823;85;20947;-81
2021/08/24 10:18:42;;;;;;;6.85;4.22;;;;;;;37.63;26.75;101282.97;1666412;85;21051;-84
2021/08/24 10:21:13;;;;;;;6.78;4.37;;;;;;;38.75;25.76;101279.91;1673738;85;21027;-77
2021/08/24 10:23:53;;;;;;;6.85;4.70;;;;;;;39.59;23.42;101272.41;1673899;85;21069;-85
2021/08/24 10:26:33;;;;;;;;;;;;;;;39.11;23.61;101280.16;1673722;84;21141;-83
2021/08/24 10:29:04;;;;;;;4.75;4.20;;;;;;;38.21;24.62;101276.91;1669324;85;20474;-87
2021/08/24 10:31:52;;;;;;;8.18;5.05;;;;;;;36.94;25.50;101263.34;1669680;86;21518;-83
2021/08/24 10:34:42;;;;;;;7.67;4.72;;;;;;;35.39;27.89;101264.70;1669187;84;20932;-84
2021/08/24 10:37:39;;;;;;;5.37;4.67;;;;;;;34.74;29.80;101269.42;1669468;86;21430;-85
2021/08/24 10:40:14;;;;;;;4.95;3.80;;;;;;;34.27;29.49;101270.75;1690637;84;21176;-86
2021/08/24 10:43:05;;;;;;;5.05;4.55;;;;;;;33.73;29.78;101265.39;1669529;84;21010;-82
2021/08/24 10:45:35;;;;;;;6.10;4.60;;;;;;;33.38;29.77;101257.34;1669300;86;21044;-82
2021/08/24 10:48:05;;;;;;;5.62;4.08;;;;;;;32.95;30.54;101257.20;1669724;86;21051;-84
2021/08/24 10:50:40;;;;;;;4.85;4.28;;;;;;;32.60;32.22;101249.63;1669396;86;20982;-84
2021/08/24 10:53:44;;;;;;;5.28;4.33;;;;;;;32.35;32.15;101250.31;1688901;84;21121;-85
2021/08/24 10:56:17;;;;;;;9.98;4.83;;;;;;;32.26;32.26;101249.80;1726410;82;21530;-84
2021/08/24 10:58:55;;;;;;;7.75;4.40;;;;;;;32.03;31.62;101248.89;1726838;83;21549;-88
2021/08/24 11:01:40;;;;;;;6.00;4.25;;;;;;;31.94;31.84;101248.39;1726590;83;21002;-83
2021/08/24 11:04:33;;;;;;;6.33;4.28;;;;;;;31.82;31.55;101248.33;1704978;83;21471;-80
2021/08/24 11:07:18;;;;;;;6.33;4.70;;;;;;;31.65;32.24;101246.50;1726670;82;21108;-90
2021/08/24 11:09:50;;;;;;;6.22;4.30;;;;;;;31.48;33.90;101252.44;1700648;83;21466;-89
2021/08/24 11:12:45;;;;;;;6.42;5.05;;;;;;;31.36;33.17;101248.05;1727035;83;21050;-84
2021/08/24 11:15:37;;;;;;;6.20;4.37;;;;;;;31.24;33.56;101245.81;1726417;82;20946;-86
2021/08/24 11:18:38;;;;;;;5.47;3.62;;;;;;;31.27;33.39;101245.36;1726972;83;20899;-91
2021/08/24 11:21:43;;;;;;;5.33;3.70;;;;;;;31.29;32.88;101244.61;1727008;83;21066;-85
2021/08/24 11:24:24;;;;;;;6.20;4.10;;;;;;;31.31;33.56;101233.13;1726686;83;21034;-83
2021/08/24 11:27:29;;;;;;;5.30;4.25;;;;;;;31.35;33.32;101230.30;1727081;83;20994;-84
2021/08/24 11:30:13;;;;;;;6.10;4.12;;;;;;;31.44;32.48;101235.66;1726481;83;20876;-88
2021/08/24 11:32:42;;;;;;;5.83;4.25;;;;;;;31.52;31.63;101235.92;1718852;83;21453;-83
2021/08/24 11:35:19;;;;;;;5.87;3.80;;;;;;;31.51;30.56;101231.08;1726842;83;21112;-82
2021/08/24 11:38:02;;;;;;;7.17;4.28;;;;;;;31.41;31.15;101236.11;1726729;83;20986;-86
2021/08/24 11:41:07;;;;;;;4.50;3.65;;;;;;;31.39;30.09;101231.50;1726766;83;21056;-81
2021/08/24 11:43:48;;;;;;;7.10;5.05;;;;;;;31.41;30.85;101226.20;1726768;83;21497;-83
2021/08/24 11:46:36;;;;;;;5.37;4.28;;;;;;;31.52;30.47;101215.28;1726582;83;20947;-86